sensor_id;sensor_type;location;lat;lon;timestamp;pressure;altitude;pressure_sealevel;temperature;humidity
11712;BME280;5912;51.034;6.984;2023-02-19T00:01:38;56550.63;;;-142.13;80.19
11712;BME280;5912;51.034;6.984;2023-02-19T00:04:07;56540.63;;;-142.13;80.12
11712;BME280;5912;51.034;6.984;2023-02-19T00:06:34;56516.59;;;-142.13;80.00
11712;BME280;5912;51.034;6.984;2023-02-19T00:09:00;56560.66;;;-142.13;79.78
11712;BME280;5912;51.034;6.984;2023-02-19T00:11:28;56546.63;;;-142.13;79.95
11712;BME280;5912;51.034;6.984;2023-02-19T00:13:55;56560.66;;;-142.13;79.70
11712;BME280;5912;51.034;6.984;2023-02-19T00:16:27;56558.66;;;-142.13;79.41
11712;BME280;5912;51.034;6.984;2023-02-19T00:18:54;56532.63;;;-142.13;79.29
11712;BME280;5912;51.034;6.984;2023-02-19T00:21:21;56544.63;;;-142.13;79.26
11712;BME280;5912;51.034;6.984;2023-02-19T00:23:50;56546.63;;;-142.13;79.18
11712;BME280;5912;51.034;6.984;2023-02-19T00:26:16;56568.66;;;-142.13;79.06
11712;BME280;5912;51.034;6.984;2023-02-19T00:28:41;56534.63;;;-142.13;79.15
11712;BME280;5912;51.034;6.984;2023-02-19T00:31:18;56544.63;;;-142.13;79.19
11712;BME280;5912;51.034;6.984;2023-02-19T00:33:45;56546.63;;;-142.13;79.16
11712;BME280;5912;51.034;6.984;2023-02-19T00:36:11;56548.63;;;-142.13;79.32
11712;BME280;5912;51.034;6.984;2023-02-19T00:38:38;56544.63;;;-142.13;79.37
11712;BME280;5912;51.034;6.984;2023-02-19T00:41:05;56556.66;;;-142.13;79.12
11712;BME280;5912;51.034;6.984;2023-02-19T00:46:09;56556.66;;;-142.13;79.02
11712;BME280;5912;51.034;6.984;2023-02-19T00:48:34;56516.59;;;-142.13;79.21
11712;BME280;5912;51.034;6.984;2023-02-19T00:51:00;56540.63;;;-142.13;79.04
11712;BME280;5912;51.034;6.984;2023-02-19T00:53:25;56544.63;;;-142.13;79.18
11712;BME280;5912;51.034;6.984;2023-02-19T00:55:50;56548.63;;;-142.13;79.18
11712;BME280;5912;51.034;6.984;2023-02-19T00:58:15;56566.66;;;-142.13;79.03
11712;BME280;5912;51.034;6.984;2023-02-19T01:00:41;56560.66;;;-142.13;78.71
11712;BME280;5912;51.034;6.984;2023-02-19T01:03:06;56550.63;;;-142.13;78.65
11712;BME280;5912;51.034;6.984;2023-02-19T01:05:31;56554.66;;;-142.13;78.51
11712;BME280;5912;51.034;6.984;2023-02-19T01:07:57;56536.63;;;-142.13;78.16
11712;BME280;5912;51.034;6.984;2023-02-19T01:10:22;56592.72;;;-142.13;77.97
11712;BME280;5912;51.034;6.984;2023-02-19T01:12:48;56546.63;;;-142.13;77.86
11712;BME280;5912;51.034;6.984;2023-02-19T01:15:13;56552.66;;;-142.13;77.61
11712;BME280;5912;51.034;6.984;2023-02-19T01:17:38;56610.75;;;-142.13;77.79
11712;BME280;5912;51.034;6.984;2023-02-19T01:20:04;56556.66;;;-142.13;77.63
11712;BME280;5912;51.034;6.984;2023-02-19T01:22:29;56508.56;;;-142.13;77.48
11712;BME280;5912;51.034;6.984;2023-02-19T01:24:55;56552.66;;;-142.13;77.60
11712;BME280;5912;51.034;6.984;2023-02-19T01:27:20;56548.63;;;-142.13;77.75
11712;BME280;5912;51.034;6.984;2023-02-19T01:29:45;56530.59;;;-142.13;77.32
11712;BME280;5912;51.034;6.984;2023-02-19T01:32:10;56566.66;;;-142.13;77.23
11712;BME280;5912;51.034;6.984;2023-02-19T01:34:36;56558.66;;;-142.13;77.20
11712;BME280;5912;51.034;6.984;2023-02-19T01:37:01;56552.66;;;-142.13;77.13
11712;BME280;5912;51.034;6.984;2023-02-19T01:39:27;56552.66;;;-142.13;76.73
11712;BME280;5912;51.034;6.984;2023-02-19T01:41:52;56532.63;;;-142.13;76.53
11712;BME280;5912;51.034;6.984;2023-02-19T01:46:44;56550.63;;;-142.13;77.32
11712;BME280;5912;51.034;6.984;2023-02-19T01:49:37;56546.63;;;-142.13;77.25
11712;BME280;5912;51.034;6.984;2023-02-19T01:52:18;56548.63;;;-142.13;77.29
11712;BME280;5912;51.034;6.984;2023-02-19T01:54:47;56558.66;;;-142.13;77.19
11712;BME280;5912;51.034;6.984;2023-02-19T01:57:18;56542.63;;;-142.13;77.17
11712;BME280;5912;51.034;6.984;2023-02-19T01:59:46;56578.69;;;-142.13;77.20
11712;BME280;5912;51.034;6.984;2023-02-19T02:02:14;56554.66;;;-142.13;77.16
11712;BME280;5912;51.034;6.984;2023-02-19T02:04:39;56520.59;;;-142.13;77.15
11712;BME280;5912;51.034;6.984;2023-02-19T02:07:05;56542.63;;;-142.13;77.26
11712;BME280;5912;51.034;6.984;2023-02-19T02:09:54;56556.66;;;-142.13;77.36
11712;BME280;5912;51.034;6.984;2023-02-19T02:12:38;56572.69;;;-142.13;77.23
11712;BME280;5912;51.034;6.984;2023-02-19T02:15:04;56554.66;;;-142.13;77.30
11712;BME280;5912;51.034;6.984;2023-02-19T02:17:38;56544.63;;;-142.13;77.12
11712;BME280;5912;51.034;6.984;2023-02-19T02:31:34;56552.66;;;-142.13;77.62
11712;BME280;5912;51.034;6.984;2023-02-19T02:34:23;56556.66;;;-142.13;77.80
11712;BME280;5912;51.034;6.984;2023-02-19T02:36:53;56548.63;;;-142.13;77.36
11712;BME280;5912;51.034;6.984;2023-02-19T02:39:22;56528.59;;;-142.13;77.48
11712;BME280;5912;51.034;6.984;2023-02-19T02:41:54;56562.66;;;-142.13;77.55
11712;BME280;5912;51.034;6.984;2023-02-19T02:44:40;56532.63;;;-142.13;77.62
11712;BME280;5912;51.034;6.984;2023-02-19T02:47:07;56540.63;;;-142.13;77.67
11712;BME280;5912;51.034;6.984;2023-02-19T02:49:55;56548.63;;;-142.13;77.57
11712;BME280;5912;51.034;6.984;2023-02-19T02:52:35;56548.63;;;-142.13;77.52
11712;BME280;5912;51.034;6.984;2023-02-19T02:55:21;56542.63;;;-142.13;77.61
11712;BME280;5912;51.034;6.984;2023-02-19T02:57:48;56554.66;;;-142.13;77.37
11712;BME280;5912;51.034;6.984;2023-02-19T03:00:13;56532.63;;;-142.13;77.41
11712;BME280;5912;51.034;6.984;2023-02-19T03:02:41;56534.63;;;-142.13;77.80
11712;BME280;5912;51.034;6.984;2023-02-19T03:05:20;56552.66;;;-142.13;78.06
11712;BME280;5912;51.034;6.984;2023-02-19T03:08:16;56540.63;;;-142.13;77.79
11712;BME280;5912;51.034;6.984;2023-02-19T03:10:53;56570.69;;;-142.13;77.74
11712;BME280;5912;51.034;6.984;2023-02-19T03:13:30;56560.66;;;-142.13;77.59
11712;BME280;5912;51.034;6.984;2023-02-19T03:16:23;56548.63;;;-142.13;77.84
11712;BME280;5912;51.034;6.984;2023-02-19T03:19:10;56556.66;;;-142.13;77.41
11712;BME280;5912;51.034;6.984;2023-02-19T03:21:59;56572.69;;;-142.13;77.46
11712;BME280;5912;51.034;6.984;2023-02-19T03:24:29;56632.78;;;-142.13;77.60
11712;BME280;5912;51.034;6.984;2023-02-19T03:27:15;56574.69;;;-142.13;77.25
11712;BME280;5912;51.034;6.984;2023-02-19T03:29:43;56568.66;;;-142.13;77.16
11712;BME280;5912;51.034;6.984;2023-02-19T03:32:18;56556.66;;;-142.13;76.98
11712;BME280;5912;51.034;6.984;2023-02-19T03:34:52;56552.66;;;-142.13;77.18
11712;BME280;5912;51.034;6.984;2023-02-19T03:37:25;56536.63;;;-142.13;77.21
11712;BME280;5912;51.034;6.984;2023-02-19T03:39:52;56530.59;;;-142.13;77.10
11712;BME280;5912;51.034;6.984;2023-02-19T03:50:32;56588.69;;;-142.13;76.77
11712;BME280;5912;51.034;6.984;2023-02-19T03:53:12;56700.91;;;-142.13;76.64
11712;BME280;5912;51.034;6.984;2023-02-19T03:56:13;56560.66;;;-142.13;76.62
11712;BME280;5912;51.034;6.984;2023-02-19T03:58:50;56564.66;;;-142.13;76.44
11712;BME280;5912;51.034;6.984;2023-02-19T04:04:15;56550.63;;;-142.13;76.25
11712;BME280;5912;51.034;6.984;2023-02-19T04:06:48;56552.66;;;-142.13;76.99
11712;BME280;5912;51.034;6.984;2023-02-19T04:09:18;56576.69;;;-142.13;76.44
11712;BME280;5912;51.034;6.984;2023-02-19T04:11:45;56540.63;;;-142.13;76.70
11712;BME280;5912;51.034;6.984;2023-02-19T04:14:23;56542.63;;;-142.13;76.53
11712;BME280;5912;51.034;6.984;2023-02-19T04:16:57;56560.66;;;-142.13;76.58
11712;BME280;5912;51.034;6.984;2023-02-19T04:19:25;56590.72;;;-142.13;76.58
11712;BME280;5912;51.034;6.984;2023-02-19T04:21:52;56576.69;;;-142.13;76.67
11712;BME280;5912;51.034;6.984;2023-02-19T04:24:22;56540.63;;;-142.13;76.76
11712;BME280;5912;51.034;6.984;2023-02-19T04:26:49;56546.63;;;-142.13;77.03
11712;BME280;5912;51.034;6.984;2023-02-19T04:29:14;56546.63;;;-142.13;77.16
11712;BME280;5912;51.034;6.984;2023-02-19T04:31:40;56548.63;;;-142.13;77.18
11712;BME280;5912;51.034;6.984;2023-02-19T04:34:05;56554.66;;;-142.13;77.44
11712;BME280;5912;51.034;6.984;2023-02-19T04:36:31;56572.69;;;-142.13;77.37
11712;BME280;5912;51.034;6.984;2023-02-19T04:38:57;56572.69;;;-142.13;77.60
11712;BME280;5912;51.034;6.984;2023-02-19T04:41:23;56562.66;;;-142.13;77.52
11712;BME280;5912;51.034;6.984;2023-02-19T04:43:48;56724.94;;;-142.13;78.18
11712;BME280;5912;51.034;6.984;2023-02-19T04:46:14;56544.63;;;-142.13;78.24
11712;BME280;5912;51.034;6.984;2023-02-19T04:48:39;56580.69;;;-142.13;78.31
11712;BME280;5912;51.034;6.984;2023-02-19T04:51:07;56550.63;;;-142.13;78.59
11712;BME280;5912;51.034;6.984;2023-02-19T04:53:33;56564.66;;;-142.13;78.65
11712;BME280;5912;51.034;6.984;2023-02-19T04:56:11;56536.63;;;-142.13;79.04
11712;BME280;5912;51.034;6.984;2023-02-19T04:58:38;56594.72;;;-142.13;79.02
11712;BME280;5912;51.034;6.984;2023-02-19T05:01:04;56556.66;;;-142.13;79.37
11712;BME280;5912;51.034;6.984;2023-02-19T05:03:30;56572.69;;;-142.13;79.44
11712;BME280;5912;51.034;6.984;2023-02-19T05:05:55;56777.03;;;-142.13;79.50
11712;BME280;5912;51.034;6.984;2023-02-19T05:08:20;56564.66;;;-142.13;79.47
11712;BME280;5912;51.034;6.984;2023-02-19T05:10:46;56576.69;;;-142.13;79.46
11712;BME280;5912;51.034;6.984;2023-02-19T05:13:11;56580.69;;;-142.13;79.95
11712;BME280;5912;51.034;6.984;2023-02-19T05:15:36;56548.63;;;-142.13;79.87
11712;BME280;5912;51.034;6.984;2023-02-19T05:18:02;56558.66;;;-142.13;79.54
11712;BME280;5912;51.034;6.984;2023-02-19T05:20:27;56570.69;;;-142.13;79.56
11712;BME280;5912;51.034;6.984;2023-02-19T05:22:53;56584.69;;;-142.13;80.03
11712;BME280;5912;51.034;6.984;2023-02-19T05:25:18;56538.63;;;-142.13;79.76
11712;BME280;5912;51.034;6.984;2023-02-19T05:27:43;56570.69;;;-142.13;79.67
11712;BME280;5912;51.034;6.984;2023-02-19T05:30:09;56576.69;;;-142.13;80.01
11712;BME280;5912;51.034;6.984;2023-02-19T05:32:35;56600.72;;;-142.13;79.98
11712;BME280;5912;51.034;6.984;2023-02-19T05:35:22;56568.66;;;-142.13;79.95
11712;BME280;5912;51.034;6.984;2023-02-19T05:37:47;56610.75;;;-142.13;80.08
11712;BME280;5912;51.034;6.984;2023-02-19T05:40:22;56578.69;;;-142.13;80.26
11712;BME280;5912;51.034;6.984;2023-02-19T05:42:47;56594.72;;;-142.13;80.13
11712;BME280;5912;51.034;6.984;2023-02-19T05:45:13;56558.66;;;-142.13;80.02
11712;BME280;5912;51.034;6.984;2023-02-19T05:47:38;56572.69;;;-142.13;79.71
11712;BME280;5912;51.034;6.984;2023-02-19T05:50:03;56592.72;;;-142.13;79.97
11712;BME280;5912;51.034;6.984;2023-02-19T05:52:35;56588.69;;;-142.13;79.60
11712;BME280;5912;51.034;6.984;2023-02-19T05:55:00;56580.69;;;-142.13;80.06
11712;BME280;5912;51.034;6.984;2023-02-19T05:57:26;56570.69;;;-142.13;80.08
11712;BME280;5912;51.034;6.984;2023-02-19T05:59:51;56556.66;;;-142.13;80.00
11712;BME280;5912;51.034;6.984;2023-02-19T06:02:25;56552.66;;;-142.13;79.99
11712;BME280;5912;51.034;6.984;2023-02-19T06:04:50;56564.66;;;-142.13;79.85
11712;BME280;5912;51.034;6.984;2023-02-19T06:07:19;56596.72;;;-142.13;80.01
11712;BME280;5912;51.034;6.984;2023-02-19T06:09:44;56590.72;;;-142.13;79.61
11712;BME280;5912;51.034;6.984;2023-02-19T06:12:09;56580.69;;;-142.13;79.67
11712;BME280;5912;51.034;6.984;2023-02-19T06:14:35;56572.69;;;-142.13;79.67
11712;BME280;5912;51.034;6.984;2023-02-19T06:17:00;56602.72;;;-142.13;79.82
11712;BME280;5912;51.034;6.984;2023-02-19T06:19:25;56596.72;;;-142.13;80.06
11712;BME280;5912;51.034;6.984;2023-02-19T06:21:51;56608.75;;;-142.13;79.90
11712;BME280;5912;51.034;6.984;2023-02-19T06:24:16;56588.69;;;-142.13;79.92
11712;BME280;5912;51.034;6.984;2023-02-19T06:26:41;56586.69;;;-142.13;80.27
11712;BME280;5912;51.034;6.984;2023-02-19T06:29:07;56580.69;;;-142.13;79.67
11712;BME280;5912;51.034;6.984;2023-02-19T06:31:32;56598.72;;;-142.13;80.31
11712;BME280;5912;51.034;6.984;2023-02-19T06:33:57;56560.66;;;-142.13;79.60
11712;BME280;5912;51.034;6.984;2023-02-19T06:36:22;56584.69;;;-142.13;79.68
11712;BME280;5912;51.034;6.984;2023-02-19T06:38:48;56596.72;;;-142.13;79.61
11712;BME280;5912;51.034;6.984;2023-02-19T06:41:14;56704.91;;;-142.13;79.44
11712;BME280;5912;51.034;6.984;2023-02-19T06:43:39;56552.66;;;-142.13;79.56
11712;BME280;5912;51.034;6.984;2023-02-19T06:46:05;56588.69;;;-142.13;79.41
11712;BME280;5912;51.034;6.984;2023-02-19T06:48:31;56564.66;;;-142.13;79.11
11712;BME280;5912;51.034;6.984;2023-02-19T06:50:57;56570.69;;;-142.13;79.03
11712;BME280;5912;51.034;6.984;2023-02-19T06:53:23;56570.69;;;-142.13;78.90
11712;BME280;5912;51.034;6.984;2023-02-19T06:55:59;56586.69;;;-142.13;78.85
11712;BME280;5912;51.034;6.984;2023-02-19T06:58:25;56602.72;;;-142.13;78.79
11712;BME280;5912;51.034;6.984;2023-02-19T07:00:52;56592.72;;;-142.13;78.78
11712;BME280;5912;51.034;6.984;2023-02-19T07:03:17;56590.72;;;-142.13;78.90
11712;BME280;5912;51.034;6.984;2023-02-19T07:05:42;56544.63;;;-142.13;78.87
11712;BME280;5912;51.034;6.984;2023-02-19T07:08:08;56592.72;;;-142.13;78.92
11712;BME280;5912;51.034;6.984;2023-02-19T07:10:33;56564.66;;;-142.13;78.97
11712;BME280;5912;51.034;6.984;2023-02-19T07:12:58;56602.72;;;-142.13;78.77
11712;BME280;5912;51.034;6.984;2023-02-19T07:15:24;56558.66;;;-142.13;78.87
11712;BME280;5912;51.034;6.984;2023-02-19T07:17:49;56570.69;;;-142.13;78.85
11712;BME280;5912;51.034;6.984;2023-02-19T07:20:14;56576.69;;;-142.13;78.55
11712;BME280;5912;51.034;6.984;2023-02-19T07:22:40;56596.72;;;-142.13;78.52
11712;BME280;5912;51.034;6.984;2023-02-19T07:25:05;56578.69;;;-142.13;78.54
11712;BME280;5912;51.034;6.984;2023-02-19T07:27:30;56560.66;;;-142.13;78.01
11712;BME280;5912;51.034;6.984;2023-02-19T07:29:56;56612.75;;;-142.13;78.30
11712;BME280;5912;51.034;6.984;2023-02-19T07:32:21;56578.69;;;-142.13;77.86
11712;BME280;5912;51.034;6.984;2023-02-19T07:34:46;56590.72;;;-142.13;78.34
11712;BME280;5912;51.034;6.984;2023-02-19T07:37:12;56582.69;;;-142.13;78.02
11712;BME280;5912;51.034;6.984;2023-02-19T07:39:37;56592.72;;;-142.13;78.48
11712;BME280;5912;51.034;6.984;2023-02-19T07:42:02;56604.72;;;-142.13;78.12
11712;BME280;5912;51.034;6.984;2023-02-19T07:44:28;56588.69;;;-142.13;77.95
11712;BME280;5912;51.034;6.984;2023-02-19T07:46:53;56580.69;;;-142.13;77.88
11712;BME280;5912;51.034;6.984;2023-02-19T07:49:18;56558.66;;;-142.13;77.79
11712;BME280;5912;51.034;6.984;2023-02-19T07:51:43;56582.69;;;-142.13;77.73
11712;BME280;5912;51.034;6.984;2023-02-19T07:54:09;56542.63;;;-142.13;77.24
11712;BME280;5912;51.034;6.984;2023-02-19T07:56:35;56560.66;;;-142.13;76.92
11712;BME280;5912;51.034;6.984;2023-02-19T07:59:00;56562.66;;;-142.13;76.37
11712;BME280;5912;51.034;6.984;2023-02-19T08:01:26;56596.72;;;-142.13;76.17
11712;BME280;5912;51.034;6.984;2023-02-19T08:04:11;56580.69;;;-142.13;76.30
11712;BME280;5912;51.034;6.984;2023-02-19T08:06:37;56562.66;;;-142.13;76.46
11712;BME280;5912;51.034;6.984;2023-02-19T08:09:04;56544.63;;;-142.13;76.93
11712;BME280;5912;51.034;6.984;2023-02-19T08:11:29;56574.69;;;-142.13;76.62
11712;BME280;5912;51.034;6.984;2023-02-19T08:14:13;56584.69;;;-142.13;76.66
11712;BME280;5912;51.034;6.984;2023-02-19T08:16:38;56548.63;;;-142.13;76.55
11712;BME280;5912;51.034;6.984;2023-02-19T08:19:03;56558.66;;;-142.13;76.72
11712;BME280;5912;51.034;6.984;2023-02-19T08:21:29;56542.63;;;-142.13;76.64
11712;BME280;5912;51.034;6.984;2023-02-19T08:23:54;56552.66;;;-142.13;76.60
11712;BME280;5912;51.034;6.984;2023-02-19T08:26:19;56550.63;;;-142.13;76.43
11712;BME280;5912;51.034;6.984;2023-02-19T08:28:45;56586.69;;;-142.13;76.27
11712;BME280;5912;51.034;6.984;2023-02-19T08:31:10;56562.66;;;-142.13;76.13
11712;BME280;5912;51.034;6.984;2023-02-19T08:33:36;56578.69;;;-142.13;76.13
11712;BME280;5912;51.034;6.984;2023-02-19T08:36:07;56556.66;;;-142.13;75.71
11712;BME280;5912;51.034;6.984;2023-02-19T08:38:34;56564.66;;;-142.13;75.40
11712;BME280;5912;51.034;6.984;2023-02-19T08:41:08;56544.63;;;-142.13;75.48
11712;BME280;5912;51.034;6.984;2023-02-19T08:43:34;56568.66;;;-142.13;74.78
11712;BME280;5912;51.034;6.984;2023-02-19T08:46:00;56550.63;;;-142.13;74.26
11712;BME280;5912;51.034;6.984;2023-02-19T08:48:26;56550.63;;;-142.13;74.17
11712;BME280;5912;51.034;6.984;2023-02-19T08:50:53;56548.63;;;-142.13;73.55
11712;BME280;5912;51.034;6.984;2023-02-19T08:53:18;56542.63;;;-142.13;73.58
11712;BME280;5912;51.034;6.984;2023-02-19T08:55:44;56542.63;;;-142.13;73.03
11712;BME280;5912;51.034;6.984;2023-02-19T08:58:09;56558.66;;;-142.13;72.51
11712;BME280;5912;51.034;6.984;2023-02-19T09:00:34;56542.63;;;-142.13;72.26
11712;BME280;5912;51.034;6.984;2023-02-19T09:03:00;56566.66;;;-142.13;72.24
11712;BME280;5912;51.034;6.984;2023-02-19T09:05:30;56548.63;;;-142.13;72.77
11712;BME280;5912;51.034;6.984;2023-02-19T09:07:58;56540.63;;;-142.13;72.32
11712;BME280;5912;51.034;6.984;2023-02-19T09:10:23;56538.63;;;-142.13;72.20
11712;BME280;5912;51.034;6.984;2023-02-19T09:12:49;56502.56;;;-142.13;71.98
11712;BME280;5912;51.034;6.984;2023-02-19T09:15:14;56540.63;;;-142.13;72.08
11712;BME280;5912;51.034;6.984;2023-02-19T09:17:39;56518.59;;;-142.13;71.82
11712;BME280;5912;51.034;6.984;2023-02-19T09:20:05;56544.63;;;-142.13;71.44
11712;BME280;5912;51.034;6.984;2023-02-19T09:22:30;56520.59;;;-142.13;71.21
11712;BME280;5912;51.034;6.984;2023-02-19T09:24:55;56516.59;;;-142.13;71.35
11712;BME280;5912;51.034;6.984;2023-02-19T09:27:20;56522.59;;;-142.13;71.48
11712;BME280;5912;51.034;6.984;2023-02-19T09:29:46;56498.56;;;-142.13;70.31
11712;BME280;5912;51.034;6.984;2023-02-19T09:32:13;56536.63;;;-142.13;70.23
11712;BME280;5912;51.034;6.984;2023-02-19T09:34:38;56572.69;;;-142.13;70.28
11712;BME280;5912;51.034;6.984;2023-02-19T09:37:05;56522.59;;;-142.13;70.46
11712;BME280;5912;51.034;6.984;2023-02-19T09:39:30;56552.66;;;-142.13;70.10
11712;BME280;5912;51.034;6.984;2023-02-19T09:41:58;56548.63;;;-142.13;70.51
11712;BME280;5912;51.034;6.984;2023-02-19T09:44:30;56508.56;;;-142.13;70.11
11712;BME280;5912;51.034;6.984;2023-02-19T09:46:58;56564.66;;;-142.13;70.14
11712;BME280;5912;51.034;6.984;2023-02-19T09:49:36;56538.63;;;-142.13;70.23
11712;BME280;5912;51.034;6.984;2023-02-19T09:54:36;56548.63;;;-142.13;70.53
11712;BME280;5912;51.034;6.984;2023-02-19T09:57:02;56512.59;;;-142.13;70.76
11712;BME280;5912;51.034;6.984;2023-02-19T09:59:38;56526.59;;;-142.13;70.21
11712;BME280;5912;51.034;6.984;2023-02-19T10:02:13;56520.59;;;-142.13;70.32
11712;BME280;5912;51.034;6.984;2023-02-19T10:04:41;56514.59;;;-142.13;70.52
11712;BME280;5912;51.034;6.984;2023-02-19T10:07:14;56500.56;;;-142.13;71.12
11712;BME280;5912;51.034;6.984;2023-02-19T10:09:40;56540.63;;;-142.13;71.44
11712;BME280;5912;51.034;6.984;2023-02-19T10:12:17;56530.59;;;-142.13;72.07
11712;BME280;5912;51.034;6.984;2023-02-19T10:14:48;56572.69;;;-142.13;71.17
11712;BME280;5912;51.034;6.984;2023-02-19T10:17:27;56520.59;;;-142.13;69.90
11712;BME280;5912;51.034;6.984;2023-02-19T10:19:54;56502.56;;;-142.13;69.68
11712;BME280;5912;51.034;6.984;2023-02-19T10:22:21;56532.63;;;-142.13;70.13
11712;BME280;5912;51.034;6.984;2023-02-19T10:24:53;56496.56;;;-142.13;70.70
11712;BME280;5912;51.034;6.984;2023-02-19T10:27:19;56504.56;;;-142.13;71.53
11712;BME280;5912;51.034;6.984;2023-02-19T10:29:46;56518.59;;;-142.13;72.08
11712;BME280;5912;51.034;6.984;2023-02-19T10:32:21;56540.63;;;-142.13;72.59
11712;BME280;5912;51.034;6.984;2023-02-19T10:35:07;56516.59;;;-142.13;73.03
11712;BME280;5912;51.034;6.984;2023-02-19T10:37:34;56514.59;;;-142.13;72.12
11712;BME280;5912;51.034;6.984;2023-02-19T10:40:00;56496.56;;;-142.13;70.79
11712;BME280;5912;51.034;6.984;2023-02-19T10:42:25;56512.59;;;-142.13;70.43
11712;BME280;5912;51.034;6.984;2023-02-19T10:44:54;56488.53;;;-142.13;69.84
11712;BME280;5912;51.034;6.984;2023-02-19T10:47:25;56634.78;;;-142.13;69.74
11712;BME280;5912;51.034;6.984;2023-02-19T10:49:51;56540.63;;;-142.13;70.39
11712;BME280;5912;51.034;6.984;2023-02-19T10:52:27;56536.63;;;-142.13;70.87
11712;BME280;5912;51.034;6.984;2023-02-19T10:57:39;56506.56;;;-142.13;72.21
11712;BME280;5912;51.034;6.984;2023-02-19T11:00:20;56508.56;;;-142.13;72.68
11712;BME280;5912;51.034;6.984;2023-02-19T11:05:59;56540.63;;;-142.13;72.87
11712;BME280;5912;51.034;6.984;2023-02-19T11:08:26;56548.63;;;-142.13;72.90
11712;BME280;5912;51.034;6.984;2023-02-19T11:10:51;56504.56;;;-142.13;71.75
11712;BME280;5912;51.034;6.984;2023-02-19T11:13:28;56492.53;;;-142.13;69.96
11712;BME280;5912;51.034;6.984;2023-02-19T11:15:55;56468.50;;;-142.13;68.87
11712;BME280;5912;51.034;6.984;2023-02-19T11:18:26;56446.47;;;-142.13;67.70
11712;BME280;5912;51.034;6.984;2023-02-19T11:20:56;56492.53;;;-142.13;67.46
11712;BME280;5912;51.034;6.984;2023-02-19T11:23:28;56520.59;;;-142.13;66.66
11712;BME280;5912;51.034;6.984;2023-02-19T11:25:57;56468.50;;;-142.13;65.68
11712;BME280;5912;51.034;6.984;2023-02-19T11:28:38;56452.47;;;-142.13;64.88
11712;BME280;5912;51.034;6.984;2023-02-19T11:38:44;56440.47;;;-142.13;63.97
11712;BME280;5912;51.034;6.984;2023-02-19T11:41:45;56452.47;;;-142.13;63.83
11712;BME280;5912;51.034;6.984;2023-02-19T11:52:59;56482.53;;;-142.13;61.36
11712;BME280;5912;51.034;6.984;2023-02-19T12:01:22;56474.53;;;-142.13;63.57
11712;BME280;5912;51.034;6.984;2023-02-19T12:04:29;56458.50;;;-142.13;63.84
11712;BME280;5912;51.034;6.984;2023-02-19T12:15:02;56396.41;;;-142.13;55.32
11712;BME280;5912;51.034;6.984;2023-02-19T12:17:50;56406.41;;;-142.13;54.82
11712;BME280;5912;51.034;6.984;2023-02-19T12:20:29;56380.38;;;-142.13;55.06
11712;BME280;5912;51.034;6.984;2023-02-19T12:26:08;56412.41;;;-142.13;55.01
11712;BME280;5912;51.034;6.984;2023-02-19T12:35:24;56440.47;;;-142.13;55.36
11712;BME280;5912;51.034;6.984;2023-02-19T12:43:00;56478.53;;;-142.13;56.17
11712;BME280;5912;51.034;6.984;2023-02-19T12:45:35;56454.47;;;-142.13;57.07
11712;BME280;5912;51.034;6.984;2023-02-19T12:50:34;56476.53;;;-142.13;59.35
11712;BME280;5912;51.034;6.984;2023-02-19T12:53:17;56484.53;;;-142.13;59.45
11712;BME280;5912;51.034;6.984;2023-02-19T12:55:44;56504.56;;;-142.13;59.78
11712;BME280;5912;51.034;6.984;2023-02-19T12:58:19;56498.56;;;-142.13;60.56
11712;BME280;5912;51.034;6.984;2023-02-19T13:00:49;56498.56;;;-142.13;60.42
11712;BME280;5912;51.034;6.984;2023-02-19T13:05:56;56472.50;;;-142.13;61.19
11712;BME280;5912;51.034;6.984;2023-02-19T13:11:28;56512.59;;;-142.13;61.86
11712;BME280;5912;51.034;6.984;2023-02-19T13:14:29;56508.56;;;-142.13;61.86
11712;BME280;5912;51.034;6.984;2023-02-19T13:17:00;56516.59;;;-142.13;61.28
11712;BME280;5912;51.034;6.984;2023-02-19T13:19:29;56518.59;;;-142.13;61.76
11712;BME280;5912;51.034;6.984;2023-02-19T13:22:04;56504.56;;;-142.13;62.30
11712;BME280;5912;51.034;6.984;2023-02-19T13:24:51;56502.56;;;-142.13;62.37
11712;BME280;5912;51.034;6.984;2023-02-19T13:27:41;56500.56;;;-142.13;61.21
11712;BME280;5912;51.034;6.984;2023-02-19T13:30:25;56490.53;;;-142.13;60.36
11712;BME280;5912;51.034;6.984;2023-02-19T13:33:02;56462.50;;;-142.13;59.66
11712;BME280;5912;51.034;6.984;2023-02-19T13:36:39;56480.53;;;-142.13;58.21
11712;BME280;5912;51.034;6.984;2023-02-19T13:38:42;56450.47;;;-142.13;57.88
11712;BME280;5912;51.034;6.984;2023-02-19T13:41:33;56460.50;;;-142.13;56.36
11712;BME280;5912;51.034;6.984;2023-02-19T13:44:03;56460.50;;;-142.13;55.55
11712;BME280;5912;51.034;6.984;2023-02-19T13:46:35;56454.47;;;-142.13;55.87
11712;BME280;5912;51.034;6.984;2023-02-19T13:51:55;56452.47;;;-142.13;56.99
11712;BME280;5912;51.034;6.984;2023-02-19T13:54:29;56462.50;;;-142.13;56.65
11712;BME280;5912;51.034;6.984;2023-02-19T13:59:48;56480.53;;;-142.13;57.29
11712;BME280;5912;51.034;6.984;2023-02-19T14:04:52;56484.53;;;-142.13;58.24
11712;BME280;5912;51.034;6.984;2023-02-19T14:07:19;56500.56;;;-142.13;59.18
11712;BME280;5912;51.034;6.984;2023-02-19T14:09:45;56516.59;;;-142.13;60.67
11712;BME280;5912;51.034;6.984;2023-02-19T14:14:47;56504.56;;;-142.13;62.61
11712;BME280;5912;51.034;6.984;2023-02-19T14:17:36;56514.59;;;-142.13;63.42
11712;BME280;5912;51.034;6.984;2023-02-19T14:25:39;56518.59;;;-142.13;65.80
11712;BME280;5912;51.034;6.984;2023-02-19T14:30:41;56522.59;;;-142.13;66.45
11712;BME280;5912;51.034;6.984;2023-02-19T14:33:10;56500.56;;;-142.13;67.06
11712;BME280;5912;51.034;6.984;2023-02-19T14:35:42;56532.63;;;-142.13;67.36
11712;BME280;5912;51.034;6.984;2023-02-19T14:38:27;56548.63;;;-142.13;67.86
11712;BME280;5912;51.034;6.984;2023-02-19T14:40:54;56540.63;;;-142.13;67.87
11712;BME280;5912;51.034;6.984;2023-02-19T14:43:22;56540.63;;;-142.13;67.74
11712;BME280;5912;51.034;6.984;2023-02-19T14:45:55;56566.66;;;-142.13;67.87
11712;BME280;5912;51.034;6.984;2023-02-19T14:48:28;56576.69;;;-142.13;67.99
11712;BME280;5912;51.034;6.984;2023-02-19T14:51:01;56536.63;;;-142.13;68.66
11712;BME280;5912;51.034;6.984;2023-02-19T14:53:28;56528.59;;;-142.13;69.29